KETB

West Bend Municipal Airport

West Bend, Wisconsin, USA
METAR KETB 231115Z AUTO 31006KT 10SM CLR 02/M01 A3020 RMK AO2
Observed Flight Rules
Oct-23 @ 11:15 UTC (35 minutes ago) Visual Flight Rules
Wind Visibility Clouds
310° at 6 knots 10 miles
  • Clear skies
Temperatures Readings
Current 2°C / 36°F
Dewpoint -1°C / 30°F
Humidity 81%
Altimeter 30.2" Hg
Pressure 1023 hPa
Elevation 270
METAR KETB 231115Z AUTO 31006KT 10SM CLR 02/M01 A3020 RMK AO2
Observed Flight Rules
Oct-23 @ 11:15 UTC
(35 minutes ago)
VFR
Wind Visibility
310° at 6 knots 10 miles
Clouds
  • Clear skies
Temperature Dewpoint
2°C / 36°F -1°C / 30°F
Humidity Altimeter Pressure
81% 30.2" Hg 1023 hPa